sensor_id;sensor_type;location;lat;lon;timestamp;temperature;humidity
43810;DHT22;29440;48.208;11.162;2022-12-05T00:00:20;1.60;99.90
43810;DHT22;29440;48.208;11.162;2022-12-05T00:02:46;1.80;99.90
43810;DHT22;29440;48.208;11.162;2022-12-05T00:05:12;1.70;99.90
43810;DHT22;29440;48.208;11.162;2022-12-05T00:07:39;1.60;99.90
43810;DHT22;29440;48.208;11.162;2022-12-05T00:10:05;1.60;99.90
43810;DHT22;29440;48.208;11.162;2022-12-05T00:12:33;1.60;99.90
43810;DHT22;29440;48.208;11.162;2022-12-05T00:14:58;1.60;99.90
43810;DHT22;29440;48.208;11.162;2022-12-05T00:17:24;1.70;99.90
43810;DHT22;29440;48.208;11.162;2022-12-05T00:19:49;1.60;99.90
43810;DHT22;29440;48.208;11.162;2022-12-05T00:22:15;1.50;99.90
43810;DHT22;29440;48.208;11.162;2022-12-05T00:24:41;1.50;99.90
43810;DHT22;29440;48.208;11.162;2022-12-05T00:27:07;1.40;99.90
43810;DHT22;29440;48.208;11.162;2022-12-05T00:29:33;1.50;99.90
43810;DHT22;29440;48.208;11.162;2022-12-05T00:31:59;1.50;99.90
43810;DHT22;29440;48.208;11.162;2022-12-05T00:34:24;1.50;99.90
43810;DHT22;29440;48.208;11.162;2022-12-05T00:36:50;1.50;99.90
43810;DHT22;29440;48.208;11.162;2022-12-05T00:39:16;1.60;99.90
43810;DHT22;29440;48.208;11.162;2022-12-05T00:41:42;1.50;99.90
43810;DHT22;29440;48.208;11.162;2022-12-05T00:44:10;1.50;99.90
43810;DHT22;29440;48.208;11.162;2022-12-05T00:46:36;1.50;99.90
43810;DHT22;29440;48.208;11.162;2022-12-05T00:49:04;1.50;99.90
43810;DHT22;29440;48.208;11.162;2022-12-05T00:51:33;1.60;99.90
43810;DHT22;29440;48.208;11.162;2022-12-05T00:54:02;1.50;99.90
43810;DHT22;29440;48.208;11.162;2022-12-05T00:56:29;1.60;99.90
43810;DHT22;29440;48.208;11.162;2022-12-05T00:58:56;1.60;99.90
43810;DHT22;29440;48.208;11.162;2022-12-05T01:01:32;1.60;99.90
43810;DHT22;29440;48.208;11.162;2022-12-05T01:04:00;1.60;99.90
43810;DHT22;29440;48.208;11.162;2022-12-05T01:06:27;1.60;99.90
43810;DHT22;29440;48.208;11.162;2022-12-05T01:08:54;1.60;99.90
43810;DHT22;29440;48.208;11.162;2022-12-05T01:11:20;1.60;99.90
43810;DHT22;29440;48.208;11.162;2022-12-05T01:13:46;1.60;99.90
43810;DHT22;29440;48.208;11.162;2022-12-05T01:16:20;1.60;99.90
43810;DHT22;29440;48.208;11.162;2022-12-05T01:18:47;1.60;99.90
43810;DHT22;29440;48.208;11.162;2022-12-05T01:21:13;1.60;99.90
43810;DHT22;29440;48.208;11.162;2022-12-05T01:23:39;1.60;99.90
43810;DHT22;29440;48.208;11.162;2022-12-05T01:26:08;1.70;99.90
43810;DHT22;29440;48.208;11.162;2022-12-05T01:28:35;1.60;99.90
43810;DHT22;29440;48.208;11.162;2022-12-05T01:31:15;1.60;99.90
43810;DHT22;29440;48.208;11.162;2022-12-05T01:33:42;1.60;99.90
43810;DHT22;29440;48.208;11.162;2022-12-05T01:36:10;1.80;99.90
43810;DHT22;29440;48.208;11.162;2022-12-05T01:38:40;1.70;99.90
43810;DHT22;29440;48.208;11.162;2022-12-05T01:41:08;1.70;99.90
43810;DHT22;29440;48.208;11.162;2022-12-05T01:43:56;1.70;99.90
43810;DHT22;29440;48.208;11.162;2022-12-05T01:46:23;1.70;99.90
43810;DHT22;29440;48.208;11.162;2022-12-05T01:48:51;1.70;99.90
43810;DHT22;29440;48.208;11.162;2022-12-05T01:51:18;1.70;99.90
43810;DHT22;29440;48.208;11.162;2022-12-05T01:53:43;1.70;99.90
43810;DHT22;29440;48.208;11.162;2022-12-05T01:56:10;1.60;99.90
43810;DHT22;29440;48.208;11.162;2022-12-05T01:58:38;1.70;99.90
43810;DHT22;29440;48.208;11.162;2022-12-05T02:01:06;1.60;99.90
43810;DHT22;29440;48.208;11.162;2022-12-05T02:03:32;1.70;99.90
43810;DHT22;29440;48.208;11.162;2022-12-05T02:06:00;1.70;99.90
43810;DHT22;29440;48.208;11.162;2022-12-05T02:08:27;1.70;99.90
43810;DHT22;29440;48.208;11.162;2022-12-05T02:10:55;1.70;99.90
43810;DHT22;29440;48.208;11.162;2022-12-05T02:13:46;1.70;99.90
43810;DHT22;29440;48.208;11.162;2022-12-05T02:32:49;1.60;99.90
43810;DHT22;29440;48.208;11.162;2022-12-05T02:35:29;1.60;99.90
43810;DHT22;29440;48.208;11.162;2022-12-05T02:38:10;1.60;99.90
43810;DHT22;29440;48.208;11.162;2022-12-05T02:41:15;1.60;99.90
43810;DHT22;29440;48.208;11.162;2022-12-05T02:44:13;1.60;99.90
43810;DHT22;29440;48.208;11.162;2022-12-05T02:46:40;1.70;99.90
43810;DHT22;29440;48.208;11.162;2022-12-05T02:49:14;1.60;99.90
43810;DHT22;29440;48.208;11.162;2022-12-05T02:51:44;1.60;99.90
43810;DHT22;29440;48.208;11.162;2022-12-05T02:54:15;1.60;99.90
43810;DHT22;29440;48.208;11.162;2022-12-05T02:56:46;1.60;99.90
43810;DHT22;29440;48.208;11.162;2022-12-05T02:59:14;1.70;99.90
43810;DHT22;29440;48.208;11.162;2022-12-05T03:01:43;1.60;99.90
43810;DHT22;29440;48.208;11.162;2022-12-05T03:04:11;1.50;99.90
43810;DHT22;29440;48.208;11.162;2022-12-05T03:06:47;1.50;99.90
43810;DHT22;29440;48.208;11.162;2022-12-05T03:09:21;1.60;99.90
43810;DHT22;29440;48.208;11.162;2022-12-05T03:12:12;1.60;99.90
43810;DHT22;29440;48.208;11.162;2022-12-05T03:15:00;1.50;99.90
43810;DHT22;29440;48.208;11.162;2022-12-05T03:17:51;1.60;99.90
43810;DHT22;29440;48.208;11.162;2022-12-05T03:20:27;1.60;99.90
43810;DHT22;29440;48.208;11.162;2022-12-05T03:23:02;1.60;99.90
43810;DHT22;29440;48.208;11.162;2022-12-05T03:25:41;1.60;99.90
43810;DHT22;29440;48.208;11.162;2022-12-05T03:28:23;1.60;99.90
43810;DHT22;29440;48.208;11.162;2022-12-05T03:30:52;1.60;99.90
43810;DHT22;29440;48.208;11.162;2022-12-05T03:33:23;1.60;99.90
43810;DHT22;29440;48.208;11.162;2022-12-05T03:36:05;1.60;99.90
43810;DHT22;29440;48.208;11.162;2022-12-05T03:39:02;1.60;99.90
43810;DHT22;29440;48.208;11.162;2022-12-05T03:41:45;1.60;99.90
43810;DHT22;29440;48.208;11.162;2022-12-05T03:44:19;1.70;99.90
43810;DHT22;29440;48.208;11.162;2022-12-05T03:47:02;1.60;99.90
43810;DHT22;29440;48.208;11.162;2022-12-05T03:49:33;1.60;99.90
43810;DHT22;29440;48.208;11.162;2022-12-05T03:52:08;1.70;99.90
43810;DHT22;29440;48.208;11.162;2022-12-05T03:54:44;1.70;99.90
43810;DHT22;29440;48.208;11.162;2022-12-05T03:57:19;1.70;99.90
43810;DHT22;29440;48.208;11.162;2022-12-05T03:59:51;1.70;99.90
43810;DHT22;29440;48.208;11.162;2022-12-05T04:05:20;1.70;99.90
43810;DHT22;29440;48.208;11.162;2022-12-05T04:07:54;1.80;99.90
43810;DHT22;29440;48.208;11.162;2022-12-05T04:10:25;1.80;99.90
43810;DHT22;29440;48.208;11.162;2022-12-05T04:12:55;1.80;99.90
43810;DHT22;29440;48.208;11.162;2022-12-05T04:15:27;1.80;99.90
43810;DHT22;29440;48.208;11.162;2022-12-05T04:18:18;2.00;99.90
43810;DHT22;29440;48.208;11.162;2022-12-05T04:20:47;1.80;99.90
43810;DHT22;29440;48.208;11.162;2022-12-05T04:23:32;1.90;99.90
43810;DHT22;29440;48.208;11.162;2022-12-05T04:26:17;1.90;99.90
43810;DHT22;29440;48.208;11.162;2022-12-05T04:29:08;1.90;99.90
43810;DHT22;29440;48.208;11.162;2022-12-05T04:31:51;1.90;99.90
43810;DHT22;29440;48.208;11.162;2022-12-05T04:34:20;2.00;99.90
43810;DHT22;29440;48.208;11.162;2022-12-05T04:36:54;2.00;99.90
43810;DHT22;29440;48.208;11.162;2022-12-05T04:39:26;2.00;99.90
43810;DHT22;29440;48.208;11.162;2022-12-05T04:42:03;2.20;99.90
43810;DHT22;29440;48.208;11.162;2022-12-05T04:44:33;2.10;99.90
43810;DHT22;29440;48.208;11.162;2022-12-05T04:47:03;2.10;99.90
43810;DHT22;29440;48.208;11.162;2022-12-05T04:49:32;2.10;99.90
43810;DHT22;29440;48.208;11.162;2022-12-05T04:52:02;2.10;99.90
43810;DHT22;29440;48.208;11.162;2022-12-05T04:54:48;2.20;99.90
43810;DHT22;29440;48.208;11.162;2022-12-05T04:57:36;2.20;99.90
43810;DHT22;29440;48.208;11.162;2022-12-05T05:00:05;2.20;99.90
43810;DHT22;29440;48.208;11.162;2022-12-05T05:02:38;2.20;99.90
43810;DHT22;29440;48.208;11.162;2022-12-05T05:05:07;2.30;99.90
43810;DHT22;29440;48.208;11.162;2022-12-05T05:07:49;2.30;99.90
43810;DHT22;29440;48.208;11.162;2022-12-05T05:10:22;2.30;99.90
43810;DHT22;29440;48.208;11.162;2022-12-05T05:12:49;2.30;99.90
43810;DHT22;29440;48.208;11.162;2022-12-05T05:15:15;2.30;99.90
43810;DHT22;29440;48.208;11.162;2022-12-05T05:17:41;2.30;99.90
43810;DHT22;29440;48.208;11.162;2022-12-05T05:20:07;2.30;99.90
43810;DHT22;29440;48.208;11.162;2022-12-05T05:22:49;2.30;99.90
43810;DHT22;29440;48.208;11.162;2022-12-05T05:25:15;2.40;99.90
43810;DHT22;29440;48.208;11.162;2022-12-05T05:27:41;2.40;99.90
43810;DHT22;29440;48.208;11.162;2022-12-05T05:30:07;2.40;99.90
43810;DHT22;29440;48.208;11.162;2022-12-05T05:32:33;2.40;99.90
43810;DHT22;29440;48.208;11.162;2022-12-05T05:34:59;2.40;99.90
43810;DHT22;29440;48.208;11.162;2022-12-05T05:37:24;2.40;99.90
43810;DHT22;29440;48.208;11.162;2022-12-05T05:39:53;2.40;99.90
43810;DHT22;29440;48.208;11.162;2022-12-05T05:42:19;2.40;99.90
43810;DHT22;29440;48.208;11.162;2022-12-05T05:44:44;2.50;99.90
43810;DHT22;29440;48.208;11.162;2022-12-05T05:47:10;2.50;99.90
43810;DHT22;29440;48.208;11.162;2022-12-05T05:49:35;2.50;99.90
43810;DHT22;29440;48.208;11.162;2022-12-05T05:52:01;2.50;99.90
43810;DHT22;29440;48.208;11.162;2022-12-05T05:54:26;2.50;99.90
43810;DHT22;29440;48.208;11.162;2022-12-05T05:56:52;2.60;99.90
43810;DHT22;29440;48.208;11.162;2022-12-05T05:59:18;2.60;99.90
43810;DHT22;29440;48.208;11.162;2022-12-05T06:01:43;2.60;99.90
43810;DHT22;29440;48.208;11.162;2022-12-05T06:04:09;2.60;99.90
43810;DHT22;29440;48.208;11.162;2022-12-05T06:06:35;2.60;99.90
43810;DHT22;29440;48.208;11.162;2022-12-05T06:09:00;2.60;99.90
43810;DHT22;29440;48.208;11.162;2022-12-05T06:11:27;2.60;99.90
43810;DHT22;29440;48.208;11.162;2022-12-05T06:13:57;2.60;99.90
43810;DHT22;29440;48.208;11.162;2022-12-05T06:16:25;2.60;99.90
43810;DHT22;29440;48.208;11.162;2022-12-05T06:18:51;2.60;99.90
43810;DHT22;29440;48.208;11.162;2022-12-05T06:21:17;2.60;99.90
43810;DHT22;29440;48.208;11.162;2022-12-05T06:23:43;2.60;99.90
43810;DHT22;29440;48.208;11.162;2022-12-05T06:26:14;2.60;99.90
43810;DHT22;29440;48.208;11.162;2022-12-05T06:28:42;2.60;99.90
43810;DHT22;29440;48.208;11.162;2022-12-05T06:31:14;2.60;99.90
43810;DHT22;29440;48.208;11.162;2022-12-05T06:33:40;2.60;99.90
43810;DHT22;29440;48.208;11.162;2022-12-05T06:36:08;2.70;99.90
43810;DHT22;29440;48.208;11.162;2022-12-05T06:38:34;2.70;99.90
43810;DHT22;29440;48.208;11.162;2022-12-05T06:41:04;2.70;99.90
43810;DHT22;29440;48.208;11.162;2022-12-05T06:43:30;2.70;99.90
43810;DHT22;29440;48.208;11.162;2022-12-05T06:45:55;2.70;99.90
43810;DHT22;29440;48.208;11.162;2022-12-05T06:48:25;2.70;99.90
43810;DHT22;29440;48.208;11.162;2022-12-05T06:50:52;2.80;99.90
43810;DHT22;29440;48.208;11.162;2022-12-05T06:53:18;2.70;99.90
43810;DHT22;29440;48.208;11.162;2022-12-05T06:55:57;2.70;99.90
43810;DHT22;29440;48.208;11.162;2022-12-05T06:58:23;2.70;99.90
43810;DHT22;29440;48.208;11.162;2022-12-05T07:00:49;2.70;99.90
43810;DHT22;29440;48.208;11.162;2022-12-05T07:03:33;2.70;99.90
43810;DHT22;29440;48.208;11.162;2022-12-05T07:06:00;2.70;99.90
43810;DHT22;29440;48.208;11.162;2022-12-05T07:08:25;2.80;99.90
43810;DHT22;29440;48.208;11.162;2022-12-05T07:10:51;2.70;99.90
43810;DHT22;29440;48.208;11.162;2022-12-05T07:13:17;2.70;99.90
43810;DHT22;29440;48.208;11.162;2022-12-05T07:15:47;2.70;99.90
43810;DHT22;29440;48.208;11.162;2022-12-05T07:18:14;2.70;99.90
43810;DHT22;29440;48.208;11.162;2022-12-05T07:20:40;2.80;99.90
43810;DHT22;29440;48.208;11.162;2022-12-05T07:23:05;2.80;99.90
43810;DHT22;29440;48.208;11.162;2022-12-05T07:25:31;2.80;99.90
43810;DHT22;29440;48.208;11.162;2022-12-05T07:27:57;2.90;99.90
43810;DHT22;29440;48.208;11.162;2022-12-05T07:30:22;2.90;99.90
43810;DHT22;29440;48.208;11.162;2022-12-05T07:32:48;2.90;99.90
43810;DHT22;29440;48.208;11.162;2022-12-05T07:35:36;2.90;99.90
43810;DHT22;29440;48.208;11.162;2022-12-05T07:38:02;2.90;99.90
43810;DHT22;29440;48.208;11.162;2022-12-05T07:40:28;2.90;99.90
43810;DHT22;29440;48.208;11.162;2022-12-05T07:42:57;2.90;99.90
43810;DHT22;29440;48.208;11.162;2022-12-05T07:45:22;2.90;99.90
43810;DHT22;29440;48.208;11.162;2022-12-05T07:47:48;2.90;99.90
43810;DHT22;29440;48.208;11.162;2022-12-05T07:50:14;2.90;99.90
43810;DHT22;29440;48.208;11.162;2022-12-05T07:52:40;3.00;99.90
43810;DHT22;29440;48.208;11.162;2022-12-05T07:55:06;3.00;99.90
43810;DHT22;29440;48.208;11.162;2022-12-05T07:57:32;3.00;99.90
43810;DHT22;29440;48.208;11.162;2022-12-05T07:59:57;3.00;99.90
43810;DHT22;29440;48.208;11.162;2022-12-05T08:02:23;3.10;99.90
43810;DHT22;29440;48.208;11.162;2022-12-05T08:04:49;3.10;99.90
43810;DHT22;29440;48.208;11.162;2022-12-05T08:07:14;3.10;99.90
43810;DHT22;29440;48.208;11.162;2022-12-05T08:09:40;3.10;99.90
43810;DHT22;29440;48.208;11.162;2022-12-05T08:12:06;3.20;99.90
43810;DHT22;29440;48.208;11.162;2022-12-05T08:14:31;3.20;99.90
43810;DHT22;29440;48.208;11.162;2022-12-05T08:16:57;3.20;99.90
43810;DHT22;29440;48.208;11.162;2022-12-05T08:19:23;3.20;99.90
43810;DHT22;29440;48.208;11.162;2022-12-05T08:21:48;3.30;99.90
43810;DHT22;29440;48.208;11.162;2022-12-05T08:24:14;3.30;99.90
43810;DHT22;29440;48.208;11.162;2022-12-05T08:26:40;3.30;99.90
43810;DHT22;29440;48.208;11.162;2022-12-05T08:29:11;3.20;99.90
43810;DHT22;29440;48.208;11.162;2022-12-05T08:31:46;3.40;99.90
43810;DHT22;29440;48.208;11.162;2022-12-05T08:34:13;3.40;99.90
43810;DHT22;29440;48.208;11.162;2022-12-05T08:36:39;3.40;99.90
43810;DHT22;29440;48.208;11.162;2022-12-05T08:39:06;3.50;99.90
43810;DHT22;29440;48.208;11.162;2022-12-05T08:41:33;3.50;99.90
43810;DHT22;29440;48.208;11.162;2022-12-05T08:44:04;3.50;99.90
43810;DHT22;29440;48.208;11.162;2022-12-05T08:46:34;3.50;99.90
43810;DHT22;29440;48.208;11.162;2022-12-05T08:49:04;3.50;99.90
43810;DHT22;29440;48.208;11.162;2022-12-05T08:51:30;3.50;99.90
43810;DHT22;29440;48.208;11.162;2022-12-05T08:53:55;3.70;99.90
43810;DHT22;29440;48.208;11.162;2022-12-05T08:56:21;3.60;99.90
43810;DHT22;29440;48.208;11.162;2022-12-05T08:58:47;3.60;99.90
43810;DHT22;29440;48.208;11.162;2022-12-05T09:01:18;3.60;99.90
43810;DHT22;29440;48.208;11.162;2022-12-05T09:03:44;3.60;99.90
43810;DHT22;29440;48.208;11.162;2022-12-05T09:06:16;3.70;99.90
43810;DHT22;29440;48.208;11.162;2022-12-05T09:08:42;3.70;99.90
43810;DHT22;29440;48.208;11.162;2022-12-05T09:11:16;3.70;99.90
43810;DHT22;29440;48.208;11.162;2022-12-05T09:13:42;3.70;99.90
43810;DHT22;29440;48.208;11.162;2022-12-05T09:16:11;3.70;99.90
43810;DHT22;29440;48.208;11.162;2022-12-05T09:18:37;3.70;99.90
43810;DHT22;29440;48.208;11.162;2022-12-05T09:21:08;3.70;99.90
43810;DHT22;29440;48.208;11.162;2022-12-05T09:23:34;3.70;99.90
43810;DHT22;29440;48.208;11.162;2022-12-05T09:26:00;3.70;99.90
43810;DHT22;29440;48.208;11.162;2022-12-05T09:28:30;3.80;99.90
43810;DHT22;29440;48.208;11.162;2022-12-05T09:31:00;3.80;99.90
43810;DHT22;29440;48.208;11.162;2022-12-05T09:33:31;3.90;99.90
43810;DHT22;29440;48.208;11.162;2022-12-05T09:35:57;3.80;99.90
43810;DHT22;29440;48.208;11.162;2022-12-05T09:38:23;3.80;99.90
43810;DHT22;29440;48.208;11.162;2022-12-05T09:44:11;3.90;99.90
43810;DHT22;29440;48.208;11.162;2022-12-05T09:47:11;3.80;99.90
43810;DHT22;29440;48.208;11.162;2022-12-05T09:49:33;3.90;99.90
43810;DHT22;29440;48.208;11.162;2022-12-05T09:52:00;3.90;99.90
43810;DHT22;29440;48.208;11.162;2022-12-05T09:54:27;3.90;99.90
43810;DHT22;29440;48.208;11.162;2022-12-05T09:56:53;3.90;99.90
43810;DHT22;29440;48.208;11.162;2022-12-05T09:59:19;3.90;99.90
43810;DHT22;29440;48.208;11.162;2022-12-05T10:02:24;3.90;99.90
43810;DHT22;29440;48.208;11.162;2022-12-05T10:04:58;4.00;99.90
43810;DHT22;29440;48.208;11.162;2022-12-05T10:07:39;4.00;99.90
43810;DHT22;29440;48.208;11.162;2022-12-05T10:10:27;4.00;99.90
43810;DHT22;29440;48.208;11.162;2022-12-05T10:13:21;4.10;99.90
43810;DHT22;29440;48.208;11.162;2022-12-05T10:15:56;4.10;99.90
43810;DHT22;29440;48.208;11.162;2022-12-05T10:19:01;4.10;99.90
43810;DHT22;29440;48.208;11.162;2022-12-05T10:21:37;4.10;99.90
43810;DHT22;29440;48.208;11.162;2022-12-05T10:24:14;4.30;99.90
43810;DHT22;29440;48.208;11.162;2022-12-05T10:26:47;4.10;99.90
43810;DHT22;29440;48.208;11.162;2022-12-05T10:32:13;4.10;99.90
43810;DHT22;29440;48.208;11.162;2022-12-05T10:34:41;4.10;99.90
43810;DHT22;29440;48.208;11.162;2022-12-05T10:37:18;4.10;99.90
43810;DHT22;29440;48.208;11.162;2022-12-05T10:39:46;4.10;99.90
43810;DHT22;29440;48.208;11.162;2022-12-05T10:42:28;4.10;99.90
43810;DHT22;29440;48.208;11.162;2022-12-05T10:44:56;4.10;99.90
43810;DHT22;29440;48.208;11.162;2022-12-05T10:47:24;4.10;99.90
43810;DHT22;29440;48.208;11.162;2022-12-05T10:49:50;4.10;99.90
43810;DHT22;29440;48.208;11.162;2022-12-05T10:52:17;4.20;99.90
43810;DHT22;29440;48.208;11.162;2022-12-05T10:54:48;4.20;99.90
43810;DHT22;29440;48.208;11.162;2022-12-05T10:57:27;4.20;99.90
43810;DHT22;29440;48.208;11.162;2022-12-05T10:59:56;4.30;99.90
43810;DHT22;29440;48.208;11.162;2022-12-05T11:02:26;4.30;99.90
43810;DHT22;29440;48.208;11.162;2022-12-05T11:04:54;4.30;99.90
43810;DHT22;29440;48.208;11.162;2022-12-05T11:09:55;4.40;99.90
43810;DHT22;29440;48.208;11.162;2022-12-05T11:12:37;4.40;99.90
43810;DHT22;29440;48.208;11.162;2022-12-05T11:17:43;4.50;99.90
43810;DHT22;29440;48.208;11.162;2022-12-05T11:22:49;4.60;99.90
43810;DHT22;29440;48.208;11.162;2022-12-05T11:25:45;4.60;99.90
43810;DHT22;29440;48.208;11.162;2022-12-05T11:33:24;4.70;99.90
43810;DHT22;29440;48.208;11.162;2022-12-05T11:35:54;4.70;99.90
43810;DHT22;29440;48.208;11.162;2022-12-05T11:38:24;4.70;99.90
43810;DHT22;29440;48.208;11.162;2022-12-05T11:41:13;4.70;99.90
43810;DHT22;29440;48.208;11.162;2022-12-05T11:46:55;4.80;99.90
43810;DHT22;29440;48.208;11.162;2022-12-05T11:49:51;4.80;99.90
43810;DHT22;29440;48.208;11.162;2022-12-05T11:57:58;4.80;99.90
43810;DHT22;29440;48.208;11.162;2022-12-05T12:00:36;4.70;99.90
43810;DHT22;29440;48.208;11.162;2022-12-05T12:06:30;4.90;99.90
43810;DHT22;29440;48.208;11.162;2022-12-05T12:11:52;4.90;99.90
43810;DHT22;29440;48.208;11.162;2022-12-05T12:17:25;4.90;99.90
43810;DHT22;29440;48.208;11.162;2022-12-05T12:20:26;4.90;99.90
43810;DHT22;29440;48.208;11.162;2022-12-05T12:28:31;4.90;99.90
43810;DHT22;29440;48.208;11.162;2022-12-05T12:33:47;4.90;99.90
43810;DHT22;29440;48.208;11.162;2022-12-05T12:46:53;4.90;99.90
43810;DHT22;29440;48.208;11.162;2022-12-05T12:49:22;4.90;99.90
43810;DHT22;29440;48.208;11.162;2022-12-05T12:52:01;4.90;99.90
43810;DHT22;29440;48.208;11.162;2022-12-05T12:54:45;4.80;99.90
43810;DHT22;29440;48.208;11.162;2022-12-05T12:57:26;4.80;99.90
43810;DHT22;29440;48.208;11.162;2022-12-05T13:02:36;4.80;99.90
43810;DHT22;29440;48.208;11.162;2022-12-05T13:05:25;4.90;99.90
43810;DHT22;29440;48.208;11.162;2022-12-05T13:08:20;4.80;99.90
43810;DHT22;29440;48.208;11.162;2022-12-05T13:10:50;4.80;99.90
43810;DHT22;29440;48.208;11.162;2022-12-05T13:13:27;4.80;99.90
43810;DHT22;29440;48.208;11.162;2022-12-05T13:16:03;4.70;99.90
43810;DHT22;29440;48.208;11.162;2022-12-05T13:18:30;4.70;99.90
43810;DHT22;29440;48.208;11.162;2022-12-05T13:21:02;4.70;99.90
43810;DHT22;29440;48.208;11.162;2022-12-05T13:23:42;4.70;99.90
43810;DHT22;29440;48.208;11.162;2022-12-05T13:26:10;4.70;99.90
43810;DHT22;29440;48.208;11.162;2022-12-05T13:31:12;4.60;99.90
43810;DHT22;29440;48.208;11.162;2022-12-05T13:33:43;4.60;99.90
43810;DHT22;29440;48.208;11.162;2022-12-05T13:36:20;4.60;99.90
43810;DHT22;29440;48.208;11.162;2022-12-05T13:39:05;4.60;99.90
43810;DHT22;29440;48.208;11.162;2022-12-05T13:41:53;4.60;99.90
43810;DHT22;29440;48.208;11.162;2022-12-05T13:44:54;4.60;99.90
43810;DHT22;29440;48.208;11.162;2022-12-05T13:49:55;4.40;99.90
43810;DHT22;29440;48.208;11.162;2022-12-05T13:52:25;4.50;99.90
43810;DHT22;29440;48.208;11.162;2022-12-05T13:55:00;4.50;99.90
43810;DHT22;29440;48.208;11.162;2022-12-05T14:07:53;4.50;99.90
43810;DHT22;29440;48.208;11.162;2022-12-05T14:12:57;4.50;99.90
43810;DHT22;29440;48.208;11.162;2022-12-05T14:17:48;4.40;99.90
43810;DHT22;29440;48.208;11.162;2022-12-05T14:25:35;4.30;99.90
43810;DHT22;29440;48.208;11.162;2022-12-05T14:28:35;4.40;99.90
43810;DHT22;29440;48.208;11.162;2022-12-05T14:34:15;4.30;99.90
43810;DHT22;29440;48.208;11.162;2022-12-05T14:42:36;4.40;99.90
43810;DHT22;29440;48.208;11.162;2022-12-05T14:45:23;4.30;99.90
43810;DHT22;29440;48.208;11.162;2022-12-05T14:48:01;4.30;99.90
43810;DHT22;29440;48.208;11.162;2022-12-05T14:59:08;4.30;99.90
43810;DHT22;29440;48.208;11.162;2022-12-05T15:01:40;4.40;99.90
43810;DHT22;29440;48.208;11.162;2022-12-05T15:09:49;4.30;99.90
43810;DHT22;29440;48.208;11.162;2022-12-05T15:14:53;4.30;99.90
43810;DHT22;29440;48.208;11.162;2022-12-05T15:17:26;4.30;99.90
43810;DHT22;29440;48.208;11.162;2022-12-05T15:20:28;4.30;99.90
43810;DHT22;29440;48.208;11.162;2022-12-05T15:22:49;4.30;99.90
43810;DHT22;29440;48.208;11.162;2022-12-05T15:27:56;4.30;99.90
43810;DHT22;29440;48.208;11.162;2022-12-05T15:30:22;4.20;99.90
43810;DHT22;29440;48.208;11.162;2022-12-05T15:32:48;4.30;99.90
43810;DHT22;29440;48.208;11.162;2022-12-05T15:35:14;4.20;99.90
43810;DHT22;29440;48.208;11.162;2022-12-05T15:37:59;4.30;99.90
43810;DHT22;29440;48.208;11.162;2022-12-05T15:40:31;4.30;99.90
43810;DHT22;29440;48.208;11.162;2022-12-05T15:43:14;4.30;99.90
43810;DHT22;29440;48.208;11.162;2022-12-05T15:45:43;4.20;99.90
43810;DHT22;29440;48.208;11.162;2022-12-05T15:50:39;4.20;99.90
43810;DHT22;29440;48.208;11.162;2022-12-05T15:58:26;4.20;99.90
43810;DHT22;29440;48.208;11.162;2022-12-05T16:00:59;4.20;99.90
43810;DHT22;29440;48.208;11.162;2022-12-05T16:03:37;4.20;99.90
43810;DHT22;29440;48.208;11.162;2022-12-05T16:06:10;4.20;99.90
43810;DHT22;29440;48.208;11.162;2022-12-05T16:08:45;4.20;99.90
43810;DHT22;29440;48.208;11.162;2022-12-05T16:11:13;4.20;99.90
43810;DHT22;29440;48.208;11.162;2022-12-05T16:13:51;4.20;99.90
43810;DHT22;29440;48.208;11.162;2022-12-05T16:16:22;4.20;99.90
43810;DHT22;29440;48.208;11.162;2022-12-05T16:19:03;4.20;99.90
43810;DHT22;29440;48.208;11.162;2022-12-05T16:21:36;4.20;99.90
43810;DHT22;29440;48.208;11.162;2022-12-05T16:24:07;4.20;99.90
43810;DHT22;29440;48.208;11.162;2022-12-05T16:26:38;4.10;99.90
43810;DHT22;29440;48.208;11.162;2022-12-05T16:29:04;4.10;99.90
43810;DHT22;29440;48.208;11.162;2022-12-05T16:31:31;4.10;99.90
43810;DHT22;29440;48.208;11.162;2022-12-05T16:34:05;4.10;99.90
43810;DHT22;29440;48.208;11.162;2022-12-05T16:36:32;4.10;99.90
43810;DHT22;29440;48.208;11.162;2022-12-05T16:39:06;4.10;99.90
43810;DHT22;29440;48.208;11.162;2022-12-05T16:41:38;4.10;99.90
43810;DHT22;29440;48.208;11.162;2022-12-05T16:44:08;4.10;99.90
43810;DHT22;29440;48.208;11.162;2022-12-05T16:46:51;4.00;99.90
43810;DHT22;29440;48.208;11.162;2022-12-05T16:49:17;4.00;99.90
43810;DHT22;29440;48.208;11.162;2022-12-05T16:51:52;4.00;99.90
43810;DHT22;29440;48.208;11.162;2022-12-05T16:54:17;4.00;99.90
43810;DHT22;29440;48.208;11.162;2022-12-05T16:56:43;4.00;99.90
43810;DHT22;29440;48.208;11.162;2022-12-05T16:59:17;4.00;99.90
43810;DHT22;29440;48.208;11.162;2022-12-05T17:01:44;4.00;99.90
43810;DHT22;29440;48.208;11.162;2022-12-05T17:04:10;4.00;99.90
43810;DHT22;29440;48.208;11.162;2022-12-05T17:06:36;4.00;99.90
43810;DHT22;29440;48.208;11.162;2022-12-05T17:09:01;4.00;99.90
43810;DHT22;29440;48.208;11.162;2022-12-05T17:11:29;4.00;99.90
43810;DHT22;29440;48.208;11.162;2022-12-05T17:13:57;3.90;99.90
43810;DHT22;29440;48.208;11.162;2022-12-05T17:16:23;3.90;99.90
43810;DHT22;29440;48.208;11.162;2022-12-05T17:18:51;3.90;99.90
43810;DHT22;29440;48.208;11.162;2022-12-05T17:21:18;3.90;99.90
43810;DHT22;29440;48.208;11.162;2022-12-05T17:23:44;3.90;99.90
43810;DHT22;29440;48.208;11.162;2022-12-05T17:26:15;3.90;99.90
43810;DHT22;29440;48.208;11.162;2022-12-05T17:28:41;3.80;99.90
43810;DHT22;29440;48.208;11.162;2022-12-05T17:31:09;3.80;99.90
43810;DHT22;29440;48.208;11.162;2022-12-05T17:33:36;3.80;99.90
43810;DHT22;29440;48.208;11.162;2022-12-05T17:36:02;3.80;99.90
43810;DHT22;29440;48.208;11.162;2022-12-05T17:38:28;3.80;99.90
43810;DHT22;29440;48.208;11.162;2022-12-05T17:40:53;3.80;99.90
43810;DHT22;29440;48.208;11.162;2022-12-05T17:43:19;3.70;99.90
43810;DHT22;29440;48.208;11.162;2022-12-05T17:45:44;3.70;99.90
43810;DHT22;29440;48.208;11.162;2022-12-05T17:48:13;3.70;99.90
43810;DHT22;29440;48.208;11.162;2022-12-05T17:50:41;3.70;99.90
43810;DHT22;29440;48.208;11.162;2022-12-05T17:53:11;3.70;99.90
43810;DHT22;29440;48.208;11.162;2022-12-05T17:55:37;3.60;99.90
43810;DHT22;29440;48.208;11.162;2022-12-05T17:58:03;3.60;99.90
43810;DHT22;29440;48.208;11.162;2022-12-05T18:00:29;3.60;99.90
43810;DHT22;29440;48.208;11.162;2022-12-05T18:02:54;3.60;99.90
43810;DHT22;29440;48.208;11.162;2022-12-05T18:05:20;3.60;99.90
43810;DHT22;29440;48.208;11.162;2022-12-05T18:07:46;3.60;99.90
43810;DHT22;29440;48.208;11.162;2022-12-05T18:10:18;3.60;99.90
43810;DHT22;29440;48.208;11.162;2022-12-05T18:12:46;3.60;99.90
43810;DHT22;29440;48.208;11.162;2022-12-05T18:15:12;3.60;99.90